createdAt,value
2023-04-30T00:03:31.301Z,12.52
2023-04-30T00:08:33.097Z,12.50
2023-04-30T00:13:34.769Z,12.37
2023-04-30T00:18:36.451Z,12.29
2023-04-30T00:23:38.325Z,12.24
2023-04-30T00:28:39.937Z,12.13
2023-04-30T00:33:41.778Z,12.05
2023-04-30T00:38:43.387Z,11.99
2023-04-30T00:43:47.170Z,11.90
2023-04-30T00:48:49.330Z,11.86
2023-04-30T00:53:51.913Z,11.81
2023-04-30T00:58:57.305Z,11.80
2023-04-30T01:03:59.304Z,11.76
2023-04-30T01:09:01.201Z,11.71
2023-04-30T01:14:21.259Z,11.62
2023-04-30T01:19:41.948Z,11.54
2023-04-30T01:24:56.127Z,11.49
2023-04-30T01:29:58.222Z,11.49
2023-04-30T01:35:02.925Z,11.47
2023-04-30T01:40:27.078Z,11.48
2023-04-30T01:45:54.424Z,11.44
2023-04-30T01:51:09.084Z,11.41
2023-04-30T01:56:18.491Z,11.39
2023-04-30T02:01:27.722Z,11.42
2023-04-30T02:06:30.253Z,11.40
2023-04-30T02:11:33.632Z,11.39
2023-04-30T02:16:35.580Z,11.35
2023-04-30T02:21:37.475Z,11.33
2023-04-30T02:26:39.923Z,11.21
2023-04-30T02:31:41.675Z,11.15
2023-04-30T02:36:45.906Z,11.19
2023-04-30T02:41:47.497Z,11.19
2023-04-30T02:46:49.244Z,11.21
2023-04-30T02:51:50.859Z,11.22
2023-04-30T02:56:53.702Z,11.23
2023-04-30T03:01:55.339Z,11.19
2023-04-30T03:06:57.012Z,11.15
2023-04-30T03:11:58.827Z,11.24
2023-04-30T03:17:00.555Z,11.24
2023-04-30T03:22:03.197Z,11.25
2023-04-30T03:27:05.246Z,11.23
2023-04-30T03:32:06.884Z,11.23
2023-04-30T03:37:08.662Z,11.19
2023-04-30T03:42:10.553Z,11.23
2023-04-30T03:47:12.691Z,11.24
2023-04-30T03:52:14.885Z,11.26
2023-04-30T03:57:17.015Z,11.32
2023-04-30T04:02:18.943Z,11.37
2023-04-30T04:07:20.654Z,11.68
2023-04-30T04:12:22.752Z,11.98
2023-04-30T04:17:24.497Z,11.95
2023-04-30T04:22:26.673Z,11.92
2023-04-30T04:27:28.525Z,12.05
2023-04-30T04:32:30.673Z,12.34
2023-04-30T04:37:32.428Z,12.65
2023-04-30T04:42:34.091Z,13.09
2023-04-30T04:47:36.664Z,13.72
2023-04-30T04:52:39.208Z,14.19
2023-04-30T04:57:42.007Z,14.06
2023-04-30T05:02:43.674Z,13.63
2023-04-30T05:07:45.995Z,13.35
2023-04-30T05:12:47.675Z,13.08
2023-04-30T05:17:49.340Z,13.52
2023-04-30T05:22:50.969Z,14.33
2023-04-30T05:27:52.851Z,14.82
2023-04-30T05:32:56.238Z,15.32
2023-04-30T05:37:57.891Z,15.46
2023-04-30T05:42:59.478Z,15.50
2023-04-30T05:48:02.026Z,15.59
2023-04-30T05:53:04.042Z,15.11
2023-04-30T05:58:06.404Z,14.95
2023-04-30T06:03:08.304Z,14.94
2023-04-30T06:08:10.017Z,14.62
2023-04-30T06:13:11.705Z,14.41
2023-04-30T06:18:14.252Z,14.38
2023-04-30T06:23:16.043Z,14.29
2023-04-30T06:28:17.660Z,14.25
2023-04-30T06:33:19.327Z,14.27
2023-04-30T06:38:21.322Z,14.60
2023-04-30T06:43:22.987Z,14.63
2023-04-30T06:48:24.721Z,14.79
2023-04-30T06:53:26.497Z,15.10
2023-04-30T06:58:28.344Z,15.28
2023-04-30T07:03:30.017Z,15.00
2023-04-30T07:08:31.821Z,15.19
2023-04-30T07:13:33.431Z,14.99
2023-04-30T07:18:35.262Z,15.29
2023-04-30T07:23:36.973Z,15.25
2023-04-30T07:28:38.586Z,15.42
2023-04-30T07:33:40.224Z,15.42
2023-04-30T07:38:41.816Z,15.40
2023-04-30T07:43:43.781Z,15.79
2023-04-30T07:48:45.615Z,15.88
2023-04-30T07:53:47.698Z,15.59
2023-04-30T07:58:49.341Z,15.67
2023-04-30T08:03:51.058Z,15.38
2023-04-30T08:08:53.370Z,15.44
2023-04-30T08:13:55.645Z,15.42
2023-04-30T08:18:57.372Z,15.17
2023-04-30T08:23:59.058Z,15.83
2023-04-30T08:29:00.722Z,15.83
2023-04-30T08:34:02.337Z,16.27
2023-04-30T08:39:04.384Z,16.44
2023-04-30T08:44:08.310Z,16.33
2023-04-30T08:49:10.842Z,16.88
2023-04-30T08:54:14.022Z,16.87
2023-04-30T08:59:16.118Z,16.55
2023-04-30T09:04:18.401Z,17.15
2023-04-30T09:09:19.990Z,17.07
2023-04-30T09:14:27.825Z,16.39
2023-04-30T09:19:31.118Z,16.75
2023-04-30T09:24:47.207Z,17.00
2023-04-30T09:29:49.207Z,16.96
2023-04-30T09:34:51.116Z,17.16
2023-04-30T09:39:56.354Z,17.01
2023-04-30T09:44:58.387Z,17.44
2023-04-30T09:50:00.828Z,17.46
2023-04-30T09:55:02.630Z,17.49
2023-04-30T10:00:04.831Z,17.50
2023-04-30T10:05:11.244Z,17.63
2023-04-30T10:10:14.982Z,18.75
2023-04-30T10:15:25.833Z,18.78
2023-04-30T10:20:29.547Z,18.97
2023-04-30T10:25:32.815Z,19.02
2023-04-30T10:30:36.235Z,19.64
2023-04-30T10:35:51.081Z,19.26
2023-04-30T10:40:58.120Z,19.56
2023-04-30T10:46:00.129Z,20.35
2023-04-30T10:51:02.072Z,20.51
2023-04-30T10:56:09.343Z,19.57
2023-04-30T11:01:17.448Z,18.80
2023-04-30T11:06:20.732Z,20.04
2023-04-30T11:11:23.870Z,19.79
2023-04-30T11:16:35.097Z,20.52
2023-04-30T11:22:05.125Z,20.26
2023-04-30T11:27:06.984Z,19.39
2023-04-30T11:32:09.047Z,19.33
2023-04-30T11:37:16.639Z,18.36
2023-04-30T11:42:19.733Z,17.96
2023-04-30T11:47:21.430Z,19.36
2023-04-30T11:52:25.606Z,19.26
2023-04-30T11:57:27.206Z,18.42
2023-04-30T12:02:29.051Z,18.51
2023-04-30T12:07:30.715Z,18.49
2023-04-30T12:12:32.430Z,18.91
2023-04-30T12:17:35.651Z,19.09
2023-04-30T12:22:37.658Z,18.76
2023-04-30T12:27:45.372Z,19.20
2023-04-30T12:32:50.939Z,19.29
2023-04-30T12:38:02.210Z,18.79
2023-04-30T12:43:08.887Z,18.03
2023-04-30T12:48:11.270Z,17.99
2023-04-30T12:53:13.285Z,18.25
2023-04-30T12:58:15.173Z,17.97
2023-04-30T13:03:21.607Z,18.53
2023-04-30T13:08:23.592Z,18.10
2023-04-30T13:13:25.487Z,18.80
2023-04-30T13:18:27.312Z,19.03
2023-04-30T13:23:30.395Z,18.92
2023-04-30T13:28:32.341Z,19.15
2023-04-30T13:33:34.074Z,18.66
2023-04-30T13:38:35.670Z,18.65
2023-04-30T13:43:41.422Z,18.63
2023-04-30T13:48:43.869Z,19.34
2023-04-30T13:53:45.592Z,19.17
2023-04-30T13:58:47.195Z,19.44
2023-04-30T14:03:48.899Z,19.22
2023-04-30T14:08:50.620Z,18.80
2023-04-30T14:13:52.537Z,18.24
2023-04-30T14:18:54.197Z,18.06
2023-04-30T14:23:55.903Z,17.89
2023-04-30T14:28:58.086Z,18.17
2023-04-30T14:34:00.049Z,18.92
2023-04-30T14:39:04.470Z,18.81
2023-04-30T14:44:06.083Z,18.84
2023-04-30T14:49:07.751Z,18.90
2023-04-30T14:54:09.706Z,19.44
2023-04-30T14:59:12.039Z,19.85
2023-04-30T15:04:13.624Z,19.74
2023-04-30T15:09:15.676Z,19.40
2023-04-30T15:14:17.435Z,19.48
2023-04-30T15:19:19.194Z,18.91
2023-04-30T15:24:22.625Z,18.77
2023-04-30T15:29:25.003Z,18.39
2023-04-30T15:34:26.769Z,17.96
2023-04-30T15:39:28.660Z,17.75
2023-04-30T15:44:30.344Z,18.37
2023-04-30T15:49:32.030Z,18.32
2023-04-30T15:54:33.724Z,18.34
2023-04-30T15:59:35.928Z,18.51
2023-04-30T16:04:37.516Z,18.62
2023-04-30T16:09:39.481Z,18.39
2023-04-30T16:14:41.247Z,18.52
2023-04-30T16:19:43.017Z,18.52
2023-04-30T16:24:44.679Z,18.53
2023-04-30T16:29:46.459Z,18.31
2023-04-30T16:34:48.071Z,18.14
2023-04-30T16:39:49.682Z,17.93
2023-04-30T16:44:51.465Z,17.78
2023-04-30T16:49:53.444Z,17.74
2023-04-30T16:54:55.605Z,17.66
2023-04-30T16:59:57.453Z,17.72
2023-04-30T17:04:59.292Z,17.76
2023-04-30T17:10:01.073Z,17.78
2023-04-30T17:15:03.829Z,17.58
2023-04-30T17:20:06.315Z,17.32
2023-04-30T17:25:08.375Z,17.09
2023-04-30T17:30:10.135Z,17.03
2023-04-30T17:35:11.728Z,16.95
2023-04-30T17:40:13.637Z,16.90
2023-04-30T17:45:16.359Z,16.78
2023-04-30T17:50:18.874Z,16.66
2023-04-30T17:55:21.976Z,16.57
2023-04-30T18:00:24.099Z,16.50
2023-04-30T18:05:25.936Z,16.31
2023-04-30T18:10:27.867Z,16.14
2023-04-30T18:15:34.992Z,15.94
2023-04-30T18:20:38.553Z,15.79
2023-04-30T18:25:42.359Z,15.70
2023-04-30T18:30:45.121Z,15.36
2023-04-30T18:35:49.723Z,15.26
2023-04-30T18:40:55.772Z,15.10
2023-04-30T18:45:57.682Z,14.99
2023-04-30T18:50:59.514Z,14.87
2023-04-30T18:56:01.114Z,14.68
2023-04-30T19:01:04.364Z,14.59
2023-04-30T19:06:06.231Z,14.49
2023-04-30T19:11:08.579Z,14.39
2023-04-30T19:16:10.314Z,14.25
2023-04-30T19:21:13.058Z,13.97
2023-04-30T19:26:14.695Z,13.72
2023-04-30T19:31:17.870Z,13.67
2023-04-30T19:36:19.591Z,13.64
2023-04-30T19:41:21.710Z,13.61
2023-04-30T19:46:23.663Z,13.54
2023-04-30T19:51:25.871Z,13.43
2023-04-30T19:56:27.576Z,13.31
2023-04-30T20:01:29.472Z,13.22
2023-04-30T20:06:31.704Z,13.13
2023-04-30T20:11:33.390Z,13.04
2023-04-30T20:16:35.063Z,12.99
2023-04-30T20:21:36.780Z,12.87
2023-04-30T20:26:38.669Z,12.82
2023-04-30T20:31:40.543Z,12.72
2023-04-30T20:36:43.306Z,12.59
2023-04-30T20:41:47.918Z,12.47
2023-04-30T20:46:49.729Z,12.38
2023-04-30T20:51:51.615Z,12.24
2023-04-30T20:56:53.260Z,12.22
2023-04-30T21:01:54.900Z,12.13
2023-04-30T21:06:56.635Z,12.03
2023-04-30T21:11:58.299Z,11.84
2023-04-30T21:16:59.931Z,11.70
2023-04-30T21:22:01.663Z,11.69
2023-04-30T21:27:04.197Z,11.60
2023-04-30T21:32:05.825Z,11.48
2023-04-30T21:37:07.451Z,11.38
2023-04-30T21:42:09.298Z,11.12
2023-04-30T21:47:11.119Z,11.02
2023-04-30T21:52:12.806Z,10.90
2023-04-30T21:57:14.437Z,10.83
2023-04-30T22:02:23.777Z,10.79
2023-04-30T22:07:27.331Z,10.76
2023-04-30T22:12:28.928Z,10.73
2023-04-30T22:17:30.681Z,10.66
2023-04-30T22:22:33.016Z,10.56
2023-04-30T22:27:34.632Z,10.39
2023-04-30T22:32:36.349Z,10.29
2023-04-30T22:37:40.606Z,10.15
2023-04-30T22:42:43.577Z,10.03
2023-04-30T22:47:45.862Z,9.89
2023-04-30T22:52:47.805Z,9.85
2023-04-30T22:57:49.394Z,9.76
2023-04-30T23:02:51.043Z,9.67
2023-04-30T23:07:54.097Z,9.65
2023-04-30T23:12:56.648Z,9.61
2023-04-30T23:18:00.343Z,9.52
2023-04-30T23:23:02.330Z,9.35
2023-04-30T23:28:05.000Z,9.21
2023-04-30T23:33:06.840Z,9.20
2023-04-30T23:38:09.304Z,9.18
2023-04-30T23:43:11.683Z,9.14
2023-04-30T23:48:13.588Z,9.09
2023-04-30T23:53:17.168Z,9.06
2023-04-30T23:58:18.800Z,9.03
